createdAt,value
2023-04-01T00:00:17.527Z,1.67
2023-04-01T00:02:49.241Z,1.68
2023-04-01T00:05:19.108Z,1.63
2023-04-01T00:07:48.655Z,1.69
2023-04-01T00:10:22.850Z,1.66
2023-04-01T00:12:52.481Z,1.60
2023-04-01T00:15:21.901Z,1.60
2023-04-01T00:17:53.514Z,1.59
2023-04-01T00:20:22.873Z,1.56
2023-04-01T00:22:52.096Z,1.58
2023-04-01T00:25:21.658Z,1.55
2023-04-01T00:27:50.875Z,1.45
2023-04-01T00:30:20.823Z,1.56
2023-04-01T00:32:50.022Z,1.56
2023-04-01T00:35:21.596Z,1.55
2023-04-01T00:37:51.565Z,1.58
2023-04-01T00:40:28.860Z,1.62
2023-04-01T00:42:58.662Z,1.61
2023-04-01T00:45:32.535Z,1.60
2023-04-01T00:48:12.307Z,1.69
2023-04-01T00:50:47.736Z,1.72
2023-04-01T00:53:23.264Z,1.74
2023-04-01T00:55:57.701Z,1.68
2023-04-01T00:58:37.441Z,1.46
2023-04-01T01:01:07.198Z,1.56
2023-04-01T01:03:36.610Z,1.62
2023-04-01T01:06:27.246Z,1.66
2023-04-01T01:09:17.256Z,1.72
2023-04-01T01:11:58.265Z,1.71
2023-04-01T01:14:43.134Z,1.64
2023-04-01T01:17:22.138Z,1.71
2023-04-01T01:20:23.017Z,1.77
2023-04-01T01:23:10.749Z,1.72
2023-04-01T01:25:50.149Z,1.81
2023-04-01T01:28:44.405Z,1.80
2023-04-01T01:31:23.551Z,1.83
2023-04-01T01:34:05.153Z,1.79
2023-04-01T01:36:37.771Z,1.77
2023-04-01T01:39:12.226Z,1.49
2023-04-01T01:41:44.216Z,1.74
2023-04-01T01:44:22.120Z,1.74
2023-04-01T01:46:52.685Z,1.75
2023-04-01T01:49:23.042Z,1.72
2023-04-01T01:51:54.186Z,1.71
2023-04-01T01:54:23.543Z,1.68
2023-04-01T01:56:58.575Z,1.64
2023-04-01T01:59:29.623Z,1.74
2023-04-01T02:02:00.402Z,1.72
2023-04-01T02:04:30.200Z,1.70
2023-04-01T02:07:05.792Z,1.67
2023-04-01T02:09:42.180Z,1.73
2023-04-01T02:12:13.933Z,1.77
2023-04-01T02:14:49.218Z,1.75
2023-04-01T02:17:21.100Z,1.55
2023-04-01T02:19:52.825Z,1.84
2023-04-01T02:22:27.481Z,1.74
2023-04-01T02:25:02.559Z,1.65
2023-04-01T02:27:34.098Z,1.49
2023-04-01T02:30:03.618Z,1.66
2023-04-01T02:32:36.256Z,1.61
2023-04-01T02:35:07.037Z,1.59
2023-04-01T02:37:40.313Z,1.69
2023-04-01T02:40:17.311Z,1.67
2023-04-01T02:42:47.479Z,1.72
2023-04-01T02:45:17.283Z,1.74
2023-04-01T02:47:46.671Z,1.71
2023-04-01T02:50:16.033Z,1.69
2023-04-01T02:52:47.754Z,1.74
2023-04-01T02:55:16.820Z,1.89
2023-04-01T02:57:45.969Z,1.72
2023-04-01T03:00:16.962Z,1.77
2023-04-01T03:02:46.630Z,1.69
2023-04-01T03:05:16.270Z,1.75
2023-04-01T03:07:49.260Z,1.68
2023-04-01T03:10:20.171Z,1.51
2023-04-01T03:12:49.458Z,1.69
2023-04-01T03:15:18.820Z,1.73
2023-04-01T03:17:53.197Z,1.80
2023-04-01T03:20:22.912Z,1.83
2023-04-01T03:22:54.694Z,1.78
2023-04-01T03:25:24.635Z,1.74
2023-04-01T03:27:53.995Z,1.64
2023-04-01T03:30:27.152Z,1.65
2023-04-01T03:32:56.671Z,1.65
2023-04-01T03:35:26.025Z,1.70
2023-04-01T03:38:02.305Z,1.66
2023-04-01T03:40:33.694Z,1.72
2023-04-01T03:43:08.240Z,1.85
2023-04-01T03:45:46.042Z,1.87
2023-04-01T03:48:21.181Z,1.82
2023-04-01T03:50:51.062Z,1.72
2023-04-01T03:56:07.811Z,1.78
2023-04-01T03:58:39.412Z,1.91
2023-04-01T04:01:17.107Z,2.16
2023-04-01T04:03:47.040Z,2.05
2023-04-01T04:06:17.054Z,2.10
2023-04-01T04:08:48.328Z,2.16
2023-04-01T04:11:18.289Z,2.26
2023-04-01T04:13:48.367Z,2.19
2023-04-01T04:16:19.670Z,2.34
2023-04-01T04:19:00.584Z,2.37
2023-04-01T04:21:29.919Z,2.38
2023-04-01T04:24:02.052Z,2.30
2023-04-01T04:26:40.268Z,2.32
2023-04-01T04:29:09.773Z,2.33
2023-04-01T04:31:39.064Z,2.32
2023-04-01T04:34:09.785Z,2.31
2023-04-01T04:36:39.285Z,2.26
2023-04-01T04:39:15.828Z,2.21
2023-04-01T04:41:46.046Z,2.20
2023-04-01T04:44:16.000Z,2.26
2023-04-01T04:46:46.096Z,2.32
2023-04-01T04:49:17.308Z,2.37
2023-04-01T04:51:47.269Z,2.38
2023-04-01T04:54:20.478Z,2.54
2023-04-01T04:57:02.605Z,2.39
2023-04-01T04:59:37.298Z,2.59
2023-04-01T05:02:12.064Z,2.60
2023-04-01T05:04:41.360Z,2.69
2023-04-01T05:07:14.388Z,2.64
2023-04-01T05:09:46.340Z,2.61
2023-04-01T05:12:15.934Z,2.74
2023-04-01T05:15:11.549Z,2.69
2023-04-01T05:17:41.801Z,2.64
2023-04-01T05:20:20.192Z,2.70
2023-04-01T05:22:49.704Z,2.58
2023-04-01T05:25:21.266Z,2.76
2023-04-01T05:27:56.287Z,2.87
2023-04-01T05:30:26.089Z,2.95
2023-04-01T05:33:25.828Z,3.03
2023-04-01T05:36:07.951Z,2.99
2023-04-01T05:38:37.421Z,3.01
2023-04-01T05:41:10.664Z,3.10
2023-04-01T05:43:45.000Z,3.26
2023-04-01T05:46:33.122Z,3.37
2023-04-01T05:49:22.857Z,3.27
2023-04-01T05:51:53.621Z,3.40
2023-04-01T05:54:23.601Z,3.43
2023-04-01T05:56:54.963Z,3.46
2023-04-01T05:59:24.807Z,3.60
2023-04-01T06:01:54.458Z,3.77
2023-04-01T06:04:24.434Z,3.91
2023-04-01T06:06:54.307Z,4.00
2023-04-01T06:09:34.846Z,4.09
2023-04-01T06:12:40.542Z,4.27
2023-04-01T06:15:21.393Z,4.28
2023-04-01T06:18:06.860Z,4.39
2023-04-01T06:20:43.825Z,4.67
2023-04-01T06:23:27.362Z,4.99
2023-04-01T06:26:21.223Z,5.22
2023-04-01T06:29:20.664Z,5.54
2023-04-01T06:32:19.825Z,5.39
2023-04-01T06:35:06.229Z,5.04
2023-04-01T06:37:53.544Z,5.19
2023-04-01T06:40:51.588Z,5.51
2023-04-01T06:43:28.631Z,5.76
2023-04-01T06:46:33.230Z,5.97
2023-04-01T06:49:37.886Z,6.18
2023-04-01T06:52:34.142Z,6.34
2023-04-01T06:55:55.624Z,6.40
2023-04-01T06:59:01.773Z,6.61
2023-04-01T07:01:38.902Z,6.67
2023-04-01T07:04:14.100Z,6.65
2023-04-01T07:06:49.248Z,6.82
2023-04-01T07:09:23.946Z,6.70
2023-04-01T07:12:20.850Z,6.09
2023-04-01T07:15:20.282Z,6.02
2023-04-01T07:17:57.250Z,5.87
2023-04-01T07:20:32.458Z,5.71
2023-04-01T07:23:10.607Z,5.70
2023-04-01T07:26:26.086Z,5.19
2023-04-01T07:28:57.950Z,5.26
2023-04-01T07:32:11.132Z,5.25
2023-04-01T07:35:01.326Z,5.48
2023-04-01T07:37:40.336Z,5.46
2023-04-01T07:40:24.532Z,5.84
2023-04-01T07:43:16.930Z,6.40
2023-04-01T07:46:09.450Z,6.42
2023-04-01T07:48:46.999Z,6.84
2023-04-01T07:51:23.812Z,6.94
2023-04-01T07:54:09.682Z,7.02
2023-04-01T07:56:46.963Z,6.80
2023-04-01T07:59:30.618Z,6.55
2023-04-01T08:02:17.554Z,6.63
2023-04-01T08:04:54.600Z,7.02
2023-04-01T08:07:28.551Z,6.90
2023-04-01T08:10:37.414Z,7.09
2023-04-01T08:13:31.176Z,7.44
2023-04-01T08:16:25.548Z,7.24
2023-04-01T08:19:08.198Z,7.25
2023-04-01T08:21:45.457Z,7.35
2023-04-01T08:24:26.266Z,7.56
2023-04-01T08:27:12.770Z,7.98
2023-04-01T08:29:49.971Z,8.02
2023-04-01T08:32:25.620Z,8.32
2023-04-01T08:35:05.043Z,8.40
2023-04-01T08:37:42.624Z,8.65
2023-04-01T08:41:02.137Z,8.59
2023-04-01T08:44:26.232Z,8.52
2023-04-01T08:47:23.254Z,8.46
2023-04-01T08:50:18.733Z,7.90
2023-04-01T08:53:21.407Z,7.74
2023-04-01T08:56:07.648Z,7.63
2023-04-01T08:59:20.243Z,7.83
2023-04-01T09:02:13.660Z,7.53
2023-04-01T09:05:48.102Z,8.09
2023-04-01T09:08:38.275Z,8.29
2023-04-01T09:11:35.356Z,8.62
2023-04-01T09:14:49.772Z,8.56
2023-04-01T09:17:35.150Z,8.34
2023-04-01T09:20:20.560Z,8.36
2023-04-01T09:23:08.563Z,8.52
2023-04-01T09:26:01.355Z,8.39
2023-04-01T09:28:41.763Z,8.74
2023-04-01T09:31:35.277Z,8.93
2023-04-01T09:34:57.928Z,9.31
2023-04-01T09:37:42.934Z,9.38
2023-04-01T09:40:20.585Z,9.27
2023-04-01T09:43:28.430Z,9.20
2023-04-01T09:46:15.176Z,8.97
2023-04-01T09:49:12.165Z,9.01
2023-04-01T09:51:56.617Z,9.05
2023-04-01T09:54:45.305Z,9.24
2023-04-01T09:57:52.030Z,9.60
2023-04-01T10:01:17.950Z,9.52
2023-04-01T10:04:25.815Z,9.26
2023-04-01T10:07:17.684Z,8.98
2023-04-01T10:10:30.471Z,8.94
2023-04-01T10:13:35.640Z,8.80
2023-04-01T10:16:50.665Z,8.49
2023-04-01T10:20:03.006Z,8.18
2023-04-01T10:23:04.514Z,8.51
2023-04-01T10:26:11.162Z,8.38
2023-04-01T10:29:03.499Z,8.13
2023-04-01T10:31:54.999Z,7.83
2023-04-01T10:35:05.852Z,7.87
2023-04-01T10:38:20.558Z,7.74
2023-04-01T10:45:01.539Z,7.58
2023-04-01T10:48:13.958Z,7.58
2023-04-01T10:51:07.494Z,7.57
2023-04-01T10:54:27.208Z,7.53
2023-04-01T10:57:51.708Z,7.41
2023-04-01T11:01:10.644Z,7.38
2023-04-01T11:04:31.090Z,7.35
2023-04-01T11:08:02.900Z,7.51
2023-04-01T11:11:12.337Z,7.56
2023-04-01T11:14:17.913Z,7.42
2023-04-01T11:17:10.445Z,7.29
2023-04-01T11:20:28.467Z,7.45
2023-04-01T11:23:14.448Z,7.59
2023-04-01T11:26:09.622Z,7.60
2023-04-01T11:29:14.179Z,7.59
2023-04-01T11:31:57.082Z,7.59
2023-04-01T11:34:55.211Z,7.50
2023-04-01T11:37:40.471Z,7.67
2023-04-01T11:40:43.946Z,7.71
2023-04-01T11:43:40.656Z,7.75
2023-04-01T11:46:34.041Z,7.90
2023-04-01T11:49:15.726Z,8.10
2023-04-01T11:52:30.739Z,8.28
2023-04-01T11:55:28.077Z,8.35
2023-04-01T11:58:20.360Z,8.36
2023-04-01T12:01:08.957Z,8.72
2023-04-01T12:03:56.670Z,8.95
2023-04-01T12:06:36.045Z,9.31
2023-04-01T12:09:16.911Z,9.68
2023-04-01T12:11:56.593Z,9.76
2023-04-01T12:14:38.442Z,9.90
2023-04-01T12:17:12.774Z,9.97
2023-04-01T12:19:50.805Z,10.17
2023-04-01T12:22:38.088Z,10.32
2023-04-01T12:25:25.746Z,10.29
2023-04-01T12:28:17.596Z,10.21
2023-04-01T12:30:56.088Z,10.13
2023-04-01T12:33:45.586Z,10.40
2023-04-01T12:36:28.158Z,10.42
2023-04-01T12:39:21.943Z,10.44
2023-04-01T12:42:04.013Z,10.33
2023-04-01T12:52:44.719Z,10.06
2023-04-01T12:55:38.433Z,9.85
2023-04-01T12:58:54.904Z,9.91
2023-04-01T13:01:53.812Z,9.75
2023-04-01T13:04:53.683Z,9.39
2023-04-01T13:07:35.822Z,9.59
2023-04-01T13:10:18.431Z,9.80
2023-04-01T13:13:16.322Z,9.73
2023-04-01T13:15:55.405Z,9.31
2023-04-01T13:18:35.532Z,9.31
2023-04-01T13:21:14.519Z,9.24
2023-04-01T13:23:56.728Z,9.29
2023-04-01T13:26:34.143Z,9.15
2023-04-01T13:29:12.146Z,9.24
2023-04-01T13:31:53.175Z,9.16
2023-04-01T13:34:38.301Z,9.25
2023-04-01T13:37:21.967Z,9.04
2023-04-01T13:40:06.624Z,9.11
2023-04-01T13:42:46.718Z,8.91
2023-04-01T13:45:20.348Z,8.71
2023-04-01T13:48:13.535Z,8.75
2023-04-01T13:51:18.162Z,8.82
2023-04-01T13:54:03.944Z,8.80
2023-04-01T13:56:52.735Z,8.51
2023-04-01T13:59:44.008Z,8.65
2023-04-01T14:02:34.787Z,8.24
2023-04-01T14:05:43.264Z,8.31
2023-04-01T14:08:29.791Z,8.18
2023-04-01T14:11:14.167Z,8.10
2023-04-01T14:13:51.569Z,8.05
2023-04-01T14:16:49.331Z,8.07
2023-04-01T14:19:42.836Z,8.00
2023-04-01T14:22:22.739Z,7.86
2023-04-01T14:25:09.581Z,7.96
2023-04-01T14:27:59.267Z,7.91
2023-04-01T14:30:38.545Z,7.83
2023-04-01T14:33:34.186Z,7.76
2023-04-01T14:36:28.966Z,7.66
2023-04-01T14:39:12.081Z,7.74
2023-04-01T14:41:51.180Z,7.66
2023-04-01T14:44:41.241Z,7.48
2023-04-01T14:47:46.938Z,7.73
2023-04-01T14:50:26.938Z,7.61
2023-04-01T14:53:01.932Z,7.63
2023-04-01T14:55:36.566Z,7.61
2023-04-01T14:58:15.444Z,7.61
2023-04-01T15:00:57.513Z,7.56
2023-04-01T15:03:29.143Z,7.67
2023-04-01T15:06:42.977Z,7.58
2023-04-01T15:09:24.153Z,7.52
2023-04-01T15:12:06.934Z,7.49
2023-04-01T15:15:13.362Z,7.51
2023-04-01T15:17:59.194Z,7.39
2023-04-01T15:20:59.122Z,7.30
2023-04-01T15:23:42.049Z,7.05
2023-04-01T15:26:28.945Z,7.21
2023-04-01T15:29:22.017Z,7.18
2023-04-01T15:31:58.757Z,7.32
2023-04-01T15:34:40.532Z,7.15
2023-04-01T15:37:20.498Z,7.31
2023-04-01T15:40:00.705Z,7.30
2023-04-01T15:42:52.576Z,7.25
2023-04-01T15:45:43.090Z,7.20
2023-04-01T15:48:28.891Z,7.16
2023-04-01T15:51:24.773Z,7.14
2023-04-01T15:54:30.198Z,7.10
2023-04-01T15:57:18.837Z,7.11
2023-04-01T16:00:04.091Z,7.04
2023-04-01T16:02:50.367Z,6.96
2023-04-01T16:05:48.871Z,6.72
2023-04-01T16:08:44.311Z,6.82
2023-04-01T16:11:22.000Z,6.83
2023-04-01T16:16:56.620Z,6.79
2023-04-01T16:19:39.536Z,6.78
2023-04-01T16:22:13.055Z,6.77
2023-04-01T16:24:48.496Z,6.70
2023-04-01T16:27:27.149Z,6.79
2023-04-01T16:30:03.952Z,6.79
2023-04-01T16:32:44.299Z,6.72
2023-04-01T16:35:39.087Z,6.81
2023-04-01T16:38:19.696Z,6.69
2023-04-01T16:41:06.218Z,6.64
2023-04-01T16:43:48.767Z,6.60
2023-04-01T16:46:34.687Z,6.56
2023-04-01T16:49:18.288Z,6.53
2023-04-01T16:51:51.744Z,6.55
2023-04-01T16:54:31.983Z,6.58
2023-04-01T16:57:12.742Z,6.40
2023-04-01T16:59:59.572Z,6.53
2023-04-01T17:02:40.952Z,6.53
2023-04-01T17:05:14.714Z,6.51
2023-04-01T17:07:51.207Z,6.50
2023-04-01T17:10:39.568Z,6.61
2023-04-01T17:13:44.006Z,6.59
2023-04-01T17:16:48.725Z,6.63
2023-04-01T17:19:32.969Z,6.63
2023-04-01T17:25:12.024Z,6.64
2023-04-01T17:27:52.551Z,6.60
2023-04-01T17:30:36.671Z,6.49
2023-04-01T17:33:51.369Z,6.61
2023-04-01T17:36:44.340Z,6.54
2023-04-01T17:39:40.968Z,6.64
2023-04-01T17:42:16.506Z,6.49
2023-04-01T17:44:57.677Z,6.55
2023-04-01T17:47:34.760Z,6.51
2023-04-01T17:50:16.898Z,6.48
2023-04-01T17:52:55.157Z,6.54
2023-04-01T17:55:45.898Z,6.49
2023-04-01T17:58:22.264Z,6.48
2023-04-01T18:01:06.425Z,6.17
2023-04-01T18:04:06.107Z,6.36
2023-04-01T18:06:39.357Z,6.25
2023-04-01T18:09:31.815Z,6.35
2023-04-01T18:12:12.095Z,6.33
2023-04-01T18:15:02.733Z,6.37
2023-04-01T18:17:45.650Z,6.21
2023-04-01T18:20:29.759Z,6.35
2023-04-01T18:23:03.827Z,6.00
2023-04-01T18:25:41.449Z,6.33
2023-04-01T18:28:36.670Z,6.39
2023-04-01T18:31:12.763Z,6.34
2023-04-01T18:33:56.786Z,6.34
2023-04-01T18:36:37.334Z,6.21
2023-04-01T18:39:23.162Z,6.35
2023-04-01T18:42:11.282Z,6.40
2023-04-01T18:44:48.801Z,6.18
2023-04-01T18:47:28.477Z,6.37
2023-04-01T18:50:04.826Z,6.14
2023-04-01T18:52:39.017Z,6.30
2023-04-01T18:55:31.904Z,6.32
2023-04-01T18:58:25.414Z,6.11
2023-04-01T19:01:14.982Z,6.19
2023-04-01T19:03:57.020Z,6.08
2023-04-01T19:06:32.186Z,6.11
2023-04-01T19:09:19.843Z,6.13
2023-04-01T19:12:16.465Z,6.11
2023-04-01T19:15:01.036Z,6.12
2023-04-01T19:17:43.345Z,6.12
2023-04-01T19:20:26.778Z,6.05
2023-04-01T19:23:25.255Z,6.10
2023-04-01T19:25:58.203Z,5.90
2023-04-01T19:28:40.726Z,6.12
2023-04-01T19:31:32.665Z,6.17
2023-04-01T19:34:13.778Z,6.20
2023-04-01T19:36:52.244Z,6.20
2023-04-01T19:39:37.035Z,6.19
2023-04-01T19:42:24.056Z,6.18
2023-04-01T19:45:05.465Z,6.20
2023-04-01T19:47:48.590Z,6.24
2023-04-01T19:50:41.099Z,6.25
2023-04-01T19:53:22.838Z,6.21
2023-04-01T19:56:03.302Z,6.26
2023-04-01T19:58:47.513Z,6.25
2023-04-01T20:01:25.461Z,6.26
2023-04-01T20:04:09.177Z,6.38
2023-04-01T20:06:45.189Z,6.28
2023-04-01T20:09:44.913Z,6.27
2023-04-01T20:12:23.235Z,6.28
2023-04-01T20:14:55.849Z,6.32
2023-04-01T20:17:27.399Z,6.34
2023-04-01T20:20:04.236Z,6.36
2023-04-01T20:22:53.375Z,6.35
2023-04-01T20:25:30.772Z,6.36
2023-04-01T20:28:06.642Z,6.30
2023-04-01T20:30:57.847Z,6.32
2023-04-01T20:33:59.604Z,6.37
2023-04-01T20:36:42.327Z,6.32
2023-04-01T20:39:35.207Z,6.34
2023-04-01T20:42:26.988Z,6.35
2023-04-01T20:48:03.086Z,6.25
2023-04-01T20:50:37.755Z,6.21
2023-04-01T20:53:23.001Z,6.25
2023-04-01T20:56:17.490Z,6.29
2023-04-01T20:58:56.840Z,6.27
2023-04-01T21:01:38.162Z,6.25
2023-04-01T21:04:25.555Z,6.32
2023-04-01T21:07:15.791Z,6.31
2023-04-01T21:12:50.845Z,6.36
2023-04-01T21:15:37.111Z,6.33
2023-04-01T21:18:42.065Z,6.27
2023-04-01T21:21:31.816Z,6.23
2023-04-01T21:24:51.332Z,6.35
2023-04-01T21:27:46.049Z,6.40
2023-04-01T21:30:33.996Z,6.30
2023-04-01T21:33:31.404Z,6.32
2023-04-01T21:36:10.680Z,6.26
2023-04-01T21:38:52.469Z,6.29
2023-04-01T21:41:37.864Z,6.33
2023-04-01T21:44:43.654Z,6.32
2023-04-01T21:47:45.458Z,6.28
2023-04-01T21:50:39.334Z,6.38
2023-04-01T21:53:36.833Z,6.29
2023-04-01T21:56:49.244Z,6.40
2023-04-01T21:59:59.429Z,6.40
2023-04-01T22:02:56.072Z,6.44
2023-04-01T22:05:31.540Z,6.42
2023-04-01T22:08:09.719Z,6.44
2023-04-01T22:10:46.484Z,6.35
2023-04-01T22:13:26.028Z,6.33
2023-04-01T22:16:07.987Z,6.35
2023-04-01T22:18:44.592Z,6.38
2023-04-01T22:21:21.887Z,6.40
2023-04-01T22:24:07.406Z,6.42
2023-04-01T22:26:51.373Z,6.39
2023-04-01T22:29:27.625Z,6.37
2023-04-01T22:32:07.001Z,6.39
2023-04-01T22:34:43.780Z,6.34
2023-04-01T22:37:21.289Z,6.30
2023-04-01T22:40:12.490Z,6.32
2023-04-01T22:42:47.479Z,6.38
2023-04-01T22:45:37.626Z,6.37
2023-04-01T22:48:20.088Z,6.35
2023-04-01T22:51:00.198Z,6.26
2023-04-01T22:53:41.611Z,6.24
2023-04-01T22:59:09.802Z,6.15
2023-04-01T23:01:47.072Z,6.16
2023-04-01T23:04:33.284Z,6.06
2023-04-01T23:09:42.872Z,6.25
2023-04-01T23:12:15.901Z,6.30
2023-04-01T23:14:50.798Z,6.29
2023-04-01T23:17:38.068Z,6.37
2023-04-01T23:20:20.576Z,6.37
2023-04-01T23:23:02.001Z,6.37
2023-04-01T23:25:42.902Z,6.39
2023-04-01T23:28:34.153Z,6.43
2023-04-01T23:31:03.570Z,6.44
2023-04-01T23:33:34.134Z,6.42
2023-04-01T23:36:15.585Z,6.44
2023-04-01T23:38:50.974Z,6.37
2023-04-01T23:41:30.015Z,6.37
2023-04-01T23:46:39.243Z,6.38
2023-04-01T23:49:16.138Z,6.40
2023-04-01T23:51:56.987Z,6.28
2023-04-01T23:54:37.106Z,6.27
2023-04-01T23:57:13.998Z,6.19
